createdAt,value
2019-02-21T00:00:58.952Z,31.63
2019-02-21T00:05:06.994Z,33.63
2019-02-21T00:09:14.799Z,31.80
2019-02-21T00:13:23.013Z,36.67
2019-02-21T00:17:30.736Z,40.37
2019-02-21T00:21:38.925Z,40.10
2019-02-21T00:25:46.665Z,38.60
2019-02-21T00:29:54.246Z,36.53
2019-02-21T00:34:02.163Z,36.33
2019-02-21T00:38:10.093Z,40.20
2019-02-21T00:42:17.805Z,39.80
2019-02-21T00:46:26.101Z,37.33
2019-02-21T00:50:35.147Z,37.10
2019-02-21T00:54:42.868Z,38.20
2019-02-21T00:58:51.093Z,37.57
2019-02-21T01:02:58.923Z,33.80
2019-02-21T01:07:07.304Z,35.33
2019-02-21T01:11:15.362Z,34.23
2019-02-21T01:15:23.551Z,31.97
2019-02-21T01:19:31.543Z,31.13
2019-02-21T01:23:39.670Z,32.20
2019-02-21T01:27:47.590Z,29.20
2019-02-21T01:31:55.816Z,30.00
2019-02-21T01:36:03.622Z,28.13
2019-02-21T01:40:12.574Z,26.67
2019-02-21T01:44:20.865Z,27.57
2019-02-21T01:48:29.694Z,24.70
2019-02-21T01:52:37.823Z,26.07
2019-02-21T01:56:45.568Z,23.77
2019-02-21T02:00:54.255Z,25.43
2019-02-21T02:05:01.990Z,28.00
2019-02-21T02:09:12.472Z,28.30
2019-02-21T02:13:24.697Z,25.00
2019-02-21T02:17:30.628Z,27.20
2019-02-21T02:21:38.747Z,28.27
2019-02-21T02:25:46.960Z,30.33
2019-02-21T02:29:54.976Z,26.43
2019-02-21T02:34:02.679Z,25.40
2019-02-21T02:38:10.857Z,26.17
2019-02-21T02:42:19.539Z,28.23
2019-02-21T02:46:27.353Z,27.87
2019-02-21T02:50:35.068Z,25.70
2019-02-21T02:54:44.014Z,28.67
2019-02-21T02:58:52.404Z,26.10
2019-02-21T03:03:00.127Z,24.27
2019-02-21T03:07:08.392Z,25.60
2019-02-21T03:11:16.531Z,27.63
2019-02-21T03:15:24.262Z,28.13
2019-02-21T03:19:31.976Z,23.43
2019-02-21T03:23:40.210Z,25.27
2019-02-21T03:27:47.641Z,24.73
2019-02-21T03:31:56.282Z,22.97
2019-02-21T03:36:04.271Z,24.00
2019-02-21T03:40:12.356Z,23.93
2019-02-21T03:44:20.354Z,24.10
2019-02-21T03:48:28.168Z,25.20
2019-02-21T03:52:35.996Z,23.87
2019-02-21T03:56:44.237Z,22.70
2019-02-21T04:00:52.159Z,22.37
2019-02-21T04:05:00.368Z,22.57
2019-02-21T04:09:10.316Z,24.97
2019-02-21T04:13:17.918Z,28.13
2019-02-21T04:17:26.141Z,25.97
2019-02-21T04:21:34.453Z,26.30
2019-02-21T04:25:42.077Z,32.27
2019-02-21T04:29:49.963Z,30.13
2019-02-21T04:33:58.093Z,23.77
2019-02-21T04:38:05.934Z,26.03
2019-02-21T04:42:14.158Z,25.03
2019-02-21T04:46:22.007Z,20.83
2019-02-21T04:50:29.809Z,18.27
2019-02-21T04:54:37.970Z,18.87
2019-02-21T04:58:45.770Z,20.20
2019-02-21T05:02:53.923Z,20.13
2019-02-21T05:07:01.885Z,21.57
2019-02-21T05:11:09.801Z,24.50
2019-02-21T05:15:17.732Z,25.00
2019-02-21T05:19:25.447Z,27.00
2019-02-21T05:23:33.550Z,25.93
2019-02-21T05:27:47.693Z,35.27
2019-02-21T05:32:40.947Z,35.93
2019-02-21T05:37:01.718Z,30.73
2019-02-21T05:41:23.457Z,31.60
2019-02-21T05:45:53.301Z,28.30
2019-02-21T05:50:34.698Z,27.17
2019-02-21T05:55:04.131Z,26.90
2019-02-21T05:59:44.423Z,27.50
2019-02-21T06:04:19.584Z,25.90
2019-02-21T06:08:44.113Z,26.70
2019-02-21T06:13:03.817Z,25.33
2019-02-21T06:17:30.219Z,26.23
2019-02-21T06:22:10.492Z,24.43
2019-02-21T06:26:23.661Z,26.27
2019-02-21T06:30:47.147Z,27.33
2019-02-21T06:34:54.968Z,25.60
2019-02-21T06:39:02.713Z,23.77
2019-02-21T06:43:11.152Z,24.17
2019-02-21T06:47:18.973Z,23.40
2019-02-21T06:51:26.887Z,24.17
2019-02-21T06:55:34.695Z,24.17
2019-02-21T06:59:45.521Z,24.27
2019-02-21T07:03:53.886Z,23.00
2019-02-21T07:08:02.011Z,22.13
2019-02-21T07:12:10.673Z,21.53
2019-02-21T07:16:18.855Z,24.47
2019-02-21T07:20:28.922Z,20.97
2019-02-21T07:24:38.702Z,18.87
2019-02-21T07:28:47.127Z,17.13
2019-02-21T07:32:58.120Z,16.23
2019-02-21T07:37:18.683Z,16.63
2019-02-21T07:41:22.002Z,20.70
2019-02-21T07:45:29.702Z,18.67
2019-02-21T07:49:37.824Z,18.00
2019-02-21T07:53:46.113Z,18.60
2019-02-21T07:57:53.842Z,16.63
2019-02-21T08:02:01.877Z,14.77
2019-02-21T08:06:09.983Z,16.60
2019-02-21T08:10:18.092Z,16.87
2019-02-21T08:14:26.008Z,18.53
2019-02-21T08:18:34.132Z,19.53
2019-02-21T08:22:41.747Z,20.90
2019-02-21T08:26:49.653Z,24.07
2019-02-21T08:30:58.259Z,19.30
2019-02-21T08:35:06.957Z,16.53
2019-02-21T08:39:15.059Z,17.53
2019-02-21T08:43:22.968Z,18.93
2019-02-21T08:47:31.180Z,15.70
2019-02-21T08:51:38.976Z,16.50
2019-02-21T08:55:46.604Z,15.40
2019-02-21T08:59:54.837Z,17.27
2019-02-21T09:04:10.506Z,16.30
2019-02-21T09:08:12.330Z,15.27
2019-02-21T09:12:20.524Z,21.83
2019-02-21T09:16:28.592Z,18.53
2019-02-21T09:20:36.208Z,26.87
2019-02-21T09:24:44.448Z,21.73
2019-02-21T09:28:52.686Z,33.70
2019-02-21T09:33:00.471Z,23.53
2019-02-21T09:37:08.386Z,17.13
2019-02-21T09:41:16.192Z,22.80
2019-02-21T09:45:24.119Z,14.27
2019-02-21T09:49:31.930Z,13.77
2019-02-21T09:53:39.623Z,15.53
2019-02-21T09:57:47.454Z,12.80
2019-02-21T10:01:57.513Z,14.10
2019-02-21T10:06:04.952Z,13.53
2019-02-21T10:10:14.777Z,14.93
2019-02-21T10:14:22.602Z,15.97
2019-02-21T10:18:30.262Z,18.13
2019-02-21T10:22:38.597Z,17.27
2019-02-21T10:26:46.932Z,16.83
2019-02-21T10:30:54.722Z,15.10
2019-02-21T10:35:02.772Z,15.10
2019-02-21T10:39:11.384Z,14.53
2019-02-21T10:43:19.185Z,15.73
2019-02-21T10:47:27.116Z,16.77
2019-02-21T10:51:35.187Z,16.53
2019-02-21T10:55:42.953Z,15.77
2019-02-21T10:59:51.334Z,17.37
2019-02-21T11:03:59.046Z,16.30
2019-02-21T11:08:06.755Z,17.97
2019-02-21T11:12:15.061Z,18.07
2019-02-21T11:16:22.891Z,16.50
2019-02-21T11:20:31.005Z,16.57
2019-02-21T11:24:39.243Z,15.23
2019-02-21T11:28:47.359Z,15.10
2019-02-21T11:32:55.464Z,15.50
2019-02-21T11:37:03.681Z,13.27
2019-02-21T11:41:11.390Z,11.83
2019-02-21T11:45:20.035Z,10.80
2019-02-21T11:49:27.826Z,12.37
2019-02-21T11:53:38.004Z,16.43
2019-02-21T11:57:45.787Z,11.70
2019-02-21T12:01:53.622Z,36.10
2019-02-21T12:06:01.813Z,20.17
2019-02-21T12:10:10.578Z,18.90
2019-02-21T12:14:18.355Z,11.93
2019-02-21T12:18:27.342Z,20.67
2019-02-21T12:22:35.365Z,12.13
2019-02-21T12:26:43.137Z,12.37
2019-02-21T12:30:51.376Z,15.80
2019-02-21T12:34:59.357Z,15.97
2019-02-21T12:39:07.881Z,18.03
2019-02-21T12:43:16.379Z,17.83
2019-02-21T12:47:24.336Z,17.57
2019-02-21T12:51:31.964Z,17.50
2019-02-21T12:55:39.860Z,15.97
2019-02-21T12:59:48.148Z,17.40
2019-02-21T13:03:57.008Z,15.97
2019-02-21T13:08:05.526Z,21.17
2019-02-21T13:12:13.337Z,18.10
2019-02-21T13:16:21.150Z,20.73
2019-02-21T13:20:29.053Z,15.63
2019-02-21T13:24:36.764Z,18.07
2019-02-21T13:28:44.776Z,13.63
2019-02-21T13:32:52.814Z,15.27
2019-02-21T13:37:00.421Z,17.87
2019-02-21T13:41:08.529Z,24.47
2019-02-21T13:45:17.798Z,14.37
2019-02-21T13:49:25.902Z,14.23
2019-02-21T13:53:33.706Z,14.90
2019-02-21T13:57:41.323Z,15.73
2019-02-21T14:01:50.131Z,19.80
2019-02-21T14:06:03.580Z,16.53
2019-02-21T14:10:08.742Z,21.47
2019-02-21T14:14:16.999Z,27.07
2019-02-21T14:18:24.819Z,20.37
2019-02-21T14:22:32.537Z,17.20
2019-02-21T14:26:41.665Z,18.33
2019-02-21T14:30:49.714Z,18.87
2019-02-21T14:34:57.428Z,25.00
2019-02-21T14:39:06.588Z,18.97
2019-02-21T14:43:17.059Z,22.03
2019-02-21T14:47:24.807Z,17.70
2019-02-21T14:51:33.057Z,21.77
2019-02-21T14:55:41.052Z,20.57
2019-02-21T14:59:48.615Z,19.03
2019-02-21T15:03:56.680Z,22.00
2019-02-21T15:08:04.432Z,19.70
2019-02-21T15:12:12.602Z,14.83
2019-02-21T15:16:20.537Z,16.10
2019-02-21T15:20:36.299Z,17.70
2019-02-21T15:24:37.850Z,23.97
2019-02-21T15:28:46.092Z,24.30
2019-02-21T15:32:53.805Z,20.43
2019-02-21T15:37:02.094Z,17.93
2019-02-21T15:41:10.116Z,19.10
2019-02-21T15:45:23.367Z,33.30
2019-02-21T15:49:29.375Z,27.10
2019-02-21T15:53:37.700Z,36.53
2019-02-21T15:57:46.552Z,28.80
2019-02-21T16:01:54.609Z,33.50
2019-02-21T16:06:02.332Z,49.70
2019-02-21T16:10:12.207Z,35.00
2019-02-21T16:14:20.492Z,83.27
2019-02-21T16:18:28.167Z,71.93
2019-02-21T16:22:37.231Z,66.03
2019-02-21T16:26:45.557Z,48.00
2019-02-21T16:30:53.361Z,42.37
2019-02-21T16:35:01.482Z,30.10
2019-02-21T16:39:10.529Z,22.57
2019-02-21T16:43:18.635Z,32.97
2019-02-21T16:47:26.647Z,45.00
2019-02-21T16:51:34.789Z,34.07
2019-02-21T16:55:42.581Z,26.87
2019-02-21T16:59:51.224Z,22.47
2019-02-21T17:03:59.022Z,23.87
2019-02-21T17:08:06.802Z,28.77
2019-02-21T17:12:14.995Z,30.70
2019-02-21T17:16:22.609Z,30.33
2019-02-21T17:20:30.334Z,23.47
2019-02-21T17:24:38.408Z,18.67
2019-02-21T17:28:46.280Z,26.77
2019-02-21T17:32:54.315Z,32.07
2019-02-21T17:37:02.596Z,28.27
2019-02-21T17:41:10.346Z,20.70
2019-02-21T17:45:19.437Z,18.40
2019-02-21T17:49:30.135Z,21.50
2019-02-21T17:53:39.004Z,21.93
2019-02-21T17:57:53.008Z,26.20
2019-02-21T18:02:01.614Z,30.07
2019-02-21T18:06:09.359Z,22.73
2019-02-21T18:10:18.039Z,22.17
2019-02-21T18:14:26.312Z,31.67
2019-02-21T18:18:34.100Z,31.30
2019-02-21T18:22:41.937Z,42.00
2019-02-21T18:26:51.045Z,30.70
2019-02-21T18:30:58.947Z,49.53
2019-02-21T18:35:07.414Z,74.83
2019-02-21T18:39:15.882Z,67.30
2019-02-21T18:43:24.017Z,44.63
2019-02-21T18:47:32.155Z,32.63
2019-02-21T18:51:39.858Z,37.10
2019-02-21T18:55:47.767Z,25.10
2019-02-21T18:59:56.519Z,95.87
2019-02-21T19:04:04.605Z,36.90
2019-02-21T19:08:14.025Z,31.03
2019-02-21T19:12:21.892Z,38.40
2019-02-21T19:16:29.875Z,33.30
2019-02-21T19:20:38.372Z,30.13
2019-02-21T19:24:46.307Z,27.53
2019-02-21T19:28:54.967Z,28.93
2019-02-21T19:33:03.134Z,30.40
2019-02-21T19:37:11.316Z,30.17
2019-02-21T19:41:20.068Z,38.57
2019-02-21T19:45:29.267Z,33.60
2019-02-21T19:49:37.533Z,31.20
2019-02-21T19:53:45.733Z,28.03
2019-02-21T19:57:53.509Z,29.53
2019-02-21T20:02:01.846Z,28.10
2019-02-21T20:06:09.656Z,28.87
2019-02-21T20:10:18.680Z,26.87
2019-02-21T20:14:26.893Z,25.30
2019-02-21T20:18:34.732Z,34.43
2019-02-21T20:22:42.927Z,38.77
2019-02-21T20:26:51.154Z,24.73
2019-02-21T20:30:58.825Z,20.70
2019-02-21T20:35:07.399Z,25.30
2019-02-21T20:39:15.397Z,24.27
2019-02-21T20:43:23.309Z,27.10
2019-02-21T20:47:31.181Z,21.83
2019-02-21T20:51:39.150Z,22.50
2019-02-21T20:55:47.267Z,22.67
2019-02-21T20:59:55.672Z,26.40
2019-02-21T21:04:04.086Z,26.73
2019-02-21T21:08:11.750Z,23.13
2019-02-21T21:12:19.914Z,22.63
2019-02-21T21:16:27.993Z,31.57
2019-02-21T21:20:35.758Z,27.17
2019-02-21T21:24:44.066Z,37.57
2019-02-21T21:28:51.867Z,27.83
2019-02-21T21:32:59.688Z,27.43
2019-02-21T21:37:07.693Z,30.40
2019-02-21T21:41:15.643Z,28.07
2019-02-21T21:45:23.548Z,29.77
2019-02-21T21:49:31.458Z,27.20
2019-02-21T21:53:39.157Z,28.67
2019-02-21T21:57:48.702Z,32.90
2019-02-21T22:01:57.103Z,33.53
2019-02-21T22:06:05.253Z,32.47
2019-02-21T22:10:14.150Z,34.83
2019-02-21T22:14:22.954Z,35.77
2019-02-21T22:18:30.645Z,38.90
2019-02-21T22:22:38.780Z,38.03
2019-02-21T22:26:46.993Z,37.93
2019-02-21T22:30:54.785Z,36.57
2019-02-21T22:35:02.832Z,35.90
2019-02-21T22:39:16.436Z,36.20
2019-02-21T22:43:20.606Z,32.67
2019-02-21T22:47:28.912Z,34.17
2019-02-21T22:51:37.008Z,35.40
2019-02-21T22:55:44.912Z,32.97
2019-02-21T22:59:53.240Z,31.43
2019-02-21T23:04:54.889Z,30.83
2019-02-21T23:09:02.865Z,29.13
2019-02-21T23:13:12.712Z,29.10
2019-02-21T23:17:20.634Z,28.27
2019-02-21T23:21:28.919Z,28.77
2019-02-21T23:25:37.033Z,28.60
2019-02-21T23:29:44.853Z,27.87
2019-02-21T23:33:56.828Z,28.47
2019-02-21T23:38:04.749Z,27.77
2019-02-21T23:42:12.559Z,26.23
2019-02-21T23:46:20.781Z,31.97
2019-02-21T23:50:28.588Z,26.30
2019-02-21T23:54:36.901Z,27.17
2019-02-21T23:58:45.229Z,25.30
